sensor_id;sensor_type;location;lat;lon;timestamp;P1;durP1;ratioP1;P2;durP2;ratioP2
44197;SDS011;30157;55.512;37.764;2023-04-21T00:00:56;9.73;;;3.92;;
44197;SDS011;30157;55.512;37.764;2023-04-21T00:03:24;7.63;;;4.22;;
44197;SDS011;30157;55.512;37.764;2023-04-21T00:05:52;7.10;;;3.83;;
44197;SDS011;30157;55.512;37.764;2023-04-21T00:08:23;7.60;;;3.90;;
44197;SDS011;30157;55.512;37.764;2023-04-21T00:10:52;8.13;;;4.20;;
44197;SDS011;30157;55.512;37.764;2023-04-21T00:13:18;5.97;;;3.55;;
44197;SDS011;30157;55.512;37.764;2023-04-21T00:15:44;7.38;;;3.70;;
44197;SDS011;30157;55.512;37.764;2023-04-21T00:18:10;9.27;;;4.05;;
44197;SDS011;30157;55.512;37.764;2023-04-21T00:20:38;7.03;;;3.97;;
44197;SDS011;30157;55.512;37.764;2023-04-21T00:23:03;6.93;;;3.80;;
44197;SDS011;30157;55.512;37.764;2023-04-21T00:25:29;8.00;;;3.95;;
44197;SDS011;30157;55.512;37.764;2023-04-21T00:27:55;9.65;;;3.92;;
44197;SDS011;30157;55.512;37.764;2023-04-21T00:30:21;6.95;;;3.75;;
44197;SDS011;30157;55.512;37.764;2023-04-21T00:32:46;9.43;;;4.15;;
44197;SDS011;30157;55.512;37.764;2023-04-21T00:35:12;8.80;;;3.83;;
44197;SDS011;30157;55.512;37.764;2023-04-21T00:37:38;9.07;;;4.45;;
44197;SDS011;30157;55.512;37.764;2023-04-21T00:40:06;8.20;;;4.07;;
44197;SDS011;30157;55.512;37.764;2023-04-21T00:42:33;7.40;;;3.83;;
44197;SDS011;30157;55.512;37.764;2023-04-21T00:45:00;6.47;;;3.90;;
44197;SDS011;30157;55.512;37.764;2023-04-21T00:47:27;6.30;;;4.57;;
44197;SDS011;30157;55.512;37.764;2023-04-21T00:49:53;8.30;;;4.10;;
44197;SDS011;30157;55.512;37.764;2023-04-21T00:52:19;5.85;;;3.47;;
44197;SDS011;30157;55.512;37.764;2023-04-21T00:54:46;10.15;;;3.60;;
44197;SDS011;30157;55.512;37.764;2023-04-21T00:57:13;8.45;;;4.10;;
44197;SDS011;30157;55.512;37.764;2023-04-21T00:59:39;8.32;;;4.40;;
44197;SDS011;30157;55.512;37.764;2023-04-21T01:02:05;7.45;;;4.28;;
44197;SDS011;30157;55.512;37.764;2023-04-21T01:04:31;6.03;;;3.70;;
44197;SDS011;30157;55.512;37.764;2023-04-21T01:07:03;7.80;;;3.80;;
44197;SDS011;30157;55.512;37.764;2023-04-21T01:09:29;6.97;;;3.50;;
44197;SDS011;30157;55.512;37.764;2023-04-21T01:14:37;8.20;;;4.43;;
44197;SDS011;30157;55.512;37.764;2023-04-21T01:17:05;7.00;;;3.65;;
44197;SDS011;30157;55.512;37.764;2023-04-21T01:19:34;6.80;;;3.90;;
44197;SDS011;30157;55.512;37.764;2023-04-21T01:22:05;6.25;;;3.78;;
44197;SDS011;30157;55.512;37.764;2023-04-21T01:24:40;6.75;;;4.00;;
44197;SDS011;30157;55.512;37.764;2023-04-21T01:27:12;7.13;;;3.53;;
44197;SDS011;30157;55.512;37.764;2023-04-21T01:29:41;6.00;;;3.80;;
44197;SDS011;30157;55.512;37.764;2023-04-21T01:32:13;6.20;;;4.10;;
44197;SDS011;30157;55.512;37.764;2023-04-21T01:34:41;6.03;;;3.97;;
44197;SDS011;30157;55.512;37.764;2023-04-21T01:37:09;7.70;;;4.22;;
44197;SDS011;30157;55.512;37.764;2023-04-21T01:39:37;7.85;;;3.90;;
44197;SDS011;30157;55.512;37.764;2023-04-21T01:42:07;6.10;;;3.80;;
44197;SDS011;30157;55.512;37.764;2023-04-21T01:44:34;10.20;;;4.72;;
44197;SDS011;30157;55.512;37.764;2023-04-21T01:47:01;7.30;;;4.25;;
44197;SDS011;30157;55.512;37.764;2023-04-21T01:49:27;10.88;;;4.30;;
44197;SDS011;30157;55.512;37.764;2023-04-21T01:51:53;11.48;;;4.18;;
44197;SDS011;30157;55.512;37.764;2023-04-21T01:54:19;7.20;;;3.95;;
44197;SDS011;30157;55.512;37.764;2023-04-21T01:56:44;7.32;;;4.15;;
44197;SDS011;30157;55.512;37.764;2023-04-21T01:59:10;9.40;;;4.05;;
44197;SDS011;30157;55.512;37.764;2023-04-21T02:01:36;10.07;;;4.32;;
44197;SDS011;30157;55.512;37.764;2023-04-21T02:04:02;7.70;;;3.95;;
44197;SDS011;30157;55.512;37.764;2023-04-21T02:06:29;9.13;;;4.50;;
44197;SDS011;30157;55.512;37.764;2023-04-21T02:08:56;8.23;;;4.53;;
44197;SDS011;30157;55.512;37.764;2023-04-21T02:11:27;8.05;;;4.30;;
44197;SDS011;30157;55.512;37.764;2023-04-21T02:13:54;6.78;;;4.22;;
44197;SDS011;30157;55.512;37.764;2023-04-21T02:16:21;8.57;;;4.70;;
44197;SDS011;30157;55.512;37.764;2023-04-21T02:18:52;11.93;;;5.13;;
44197;SDS011;30157;55.512;37.764;2023-04-21T02:21:18;10.55;;;5.43;;
44197;SDS011;30157;55.512;37.764;2023-04-21T02:23:48;10.25;;;4.95;;
44197;SDS011;30157;55.512;37.764;2023-04-21T02:26:14;9.77;;;4.93;;
44197;SDS011;30157;55.512;37.764;2023-04-21T02:28:40;7.32;;;4.40;;
44197;SDS011;30157;55.512;37.764;2023-04-21T02:31:06;10.60;;;5.20;;
44197;SDS011;30157;55.512;37.764;2023-04-21T02:33:33;11.75;;;6.25;;
44197;SDS011;30157;55.512;37.764;2023-04-21T02:35:59;9.90;;;5.70;;
44197;SDS011;30157;55.512;37.764;2023-04-21T02:38:25;10.68;;;5.78;;
44197;SDS011;30157;55.512;37.764;2023-04-21T02:40:50;14.13;;;6.38;;
44197;SDS011;30157;55.512;37.764;2023-04-21T02:43:18;11.13;;;6.30;;
44197;SDS011;30157;55.512;37.764;2023-04-21T02:45:44;8.60;;;5.30;;
44197;SDS011;30157;55.512;37.764;2023-04-21T02:48:11;10.93;;;5.10;;
44197;SDS011;30157;55.512;37.764;2023-04-21T02:50:38;8.23;;;4.30;;
44197;SDS011;30157;55.512;37.764;2023-04-21T02:53:04;9.88;;;4.63;;
44197;SDS011;30157;55.512;37.764;2023-04-21T02:55:30;11.27;;;4.88;;
44197;SDS011;30157;55.512;37.764;2023-04-21T02:57:56;9.27;;;4.78;;
44197;SDS011;30157;55.512;37.764;2023-04-21T03:00:22;9.43;;;4.45;;
44197;SDS011;30157;55.512;37.764;2023-04-21T03:02:48;8.25;;;3.92;;
44197;SDS011;30157;55.512;37.764;2023-04-21T03:05:15;9.60;;;4.80;;
44197;SDS011;30157;55.512;37.764;2023-04-21T03:07:43;7.43;;;4.10;;
44197;SDS011;30157;55.512;37.764;2023-04-21T03:10:10;7.13;;;3.60;;
44197;SDS011;30157;55.512;37.764;2023-04-21T03:12:35;6.95;;;3.83;;
44197;SDS011;30157;55.512;37.764;2023-04-21T03:15:02;8.05;;;3.53;;
44197;SDS011;30157;55.512;37.764;2023-04-21T03:17:30;6.30;;;3.95;;
44197;SDS011;30157;55.512;37.764;2023-04-21T03:19:57;13.82;;;3.60;;
44197;SDS011;30157;55.512;37.764;2023-04-21T03:22:22;7.15;;;3.45;;
44197;SDS011;30157;55.512;37.764;2023-04-21T03:24:48;7.57;;;3.67;;
44197;SDS011;30157;55.512;37.764;2023-04-21T03:27:14;6.32;;;3.70;;
44197;SDS011;30157;55.512;37.764;2023-04-21T03:29:40;6.05;;;3.53;;
44197;SDS011;30157;55.512;37.764;2023-04-21T03:32:06;5.93;;;3.55;;
44197;SDS011;30157;55.512;37.764;2023-04-21T03:34:32;6.22;;;3.65;;
44197;SDS011;30157;55.512;37.764;2023-04-21T03:37:01;8.57;;;3.58;;
44197;SDS011;30157;55.512;37.764;2023-04-21T03:39:27;9.00;;;3.70;;
44197;SDS011;30157;55.512;37.764;2023-04-21T03:41:53;7.70;;;3.55;;
44197;SDS011;30157;55.512;37.764;2023-04-21T03:44:19;6.53;;;3.35;;
44197;SDS011;30157;55.512;37.764;2023-04-21T03:46:45;7.32;;;3.53;;
44197;SDS011;30157;55.512;37.764;2023-04-21T03:49:11;5.10;;;3.25;;
44197;SDS011;30157;55.512;37.764;2023-04-21T03:51:36;5.18;;;3.00;;
44197;SDS011;30157;55.512;37.764;2023-04-21T03:54:02;5.82;;;3.20;;
44197;SDS011;30157;55.512;37.764;2023-04-21T03:56:28;5.10;;;3.08;;
44197;SDS011;30157;55.512;37.764;2023-04-21T03:58:54;5.43;;;3.22;;
44197;SDS011;30157;55.512;37.764;2023-04-21T04:01:19;7.60;;;3.03;;
44197;SDS011;30157;55.512;37.764;2023-04-21T04:03:46;6.82;;;3.17;;
44197;SDS011;30157;55.512;37.764;2023-04-21T04:06:12;4.43;;;3.25;;
44197;SDS011;30157;55.512;37.764;2023-04-21T04:08:37;3.30;;;2.55;;
44197;SDS011;30157;55.512;37.764;2023-04-21T04:11:03;7.93;;;3.38;;
44197;SDS011;30157;55.512;37.764;2023-04-21T04:13:29;10.93;;;3.67;;
44197;SDS011;30157;55.512;37.764;2023-04-21T04:15:54;9.18;;;3.55;;
44197;SDS011;30157;55.512;37.764;2023-04-21T04:18:20;5.18;;;3.22;;
44197;SDS011;30157;55.512;37.764;2023-04-21T04:20:46;7.55;;;3.00;;
44197;SDS011;30157;55.512;37.764;2023-04-21T04:23:12;7.20;;;3.45;;
44197;SDS011;30157;55.512;37.764;2023-04-21T04:25:38;6.55;;;3.13;;
44197;SDS011;30157;55.512;37.764;2023-04-21T04:28:04;8.20;;;3.55;;
44197;SDS011;30157;55.512;37.764;2023-04-21T04:30:31;6.65;;;3.38;;
44197;SDS011;30157;55.512;37.764;2023-04-21T04:32:58;9.13;;;3.63;;
44197;SDS011;30157;55.512;37.764;2023-04-21T04:35:24;5.78;;;3.22;;
44197;SDS011;30157;55.512;37.764;2023-04-21T04:37:49;5.97;;;3.30;;
44197;SDS011;30157;55.512;37.764;2023-04-21T04:40:16;9.35;;;3.13;;
44197;SDS011;30157;55.512;37.764;2023-04-21T04:42:42;5.53;;;3.10;;
44197;SDS011;30157;55.512;37.764;2023-04-21T04:45:09;6.22;;;3.40;;
44197;SDS011;30157;55.512;37.764;2023-04-21T04:47:36;6.90;;;3.13;;
44197;SDS011;30157;55.512;37.764;2023-04-21T04:50:03;8.75;;;3.30;;
44197;SDS011;30157;55.512;37.764;2023-04-21T04:52:30;4.40;;;3.20;;
44197;SDS011;30157;55.512;37.764;2023-04-21T04:54:56;10.82;;;3.67;;
44197;SDS011;30157;55.512;37.764;2023-04-21T04:57:22;7.65;;;3.10;;
44197;SDS011;30157;55.512;37.764;2023-04-21T04:59:47;6.50;;;2.80;;
44197;SDS011;30157;55.512;37.764;2023-04-21T05:02:13;5.80;;;2.58;;
44197;SDS011;30157;55.512;37.764;2023-04-21T05:04:40;5.55;;;3.15;;
44197;SDS011;30157;55.512;37.764;2023-04-21T05:07:05;6.95;;;2.85;;
44197;SDS011;30157;55.512;37.764;2023-04-21T05:09:32;4.40;;;2.70;;
44197;SDS011;30157;55.512;37.764;2023-04-21T05:11:58;7.15;;;2.80;;
44197;SDS011;30157;55.512;37.764;2023-04-21T05:14:25;6.35;;;2.83;;
44197;SDS011;30157;55.512;37.764;2023-04-21T05:16:51;6.80;;;3.55;;
44197;SDS011;30157;55.512;37.764;2023-04-21T05:19:17;6.75;;;3.40;;
44197;SDS011;30157;55.512;37.764;2023-04-21T05:21:43;5.95;;;2.92;;
44197;SDS011;30157;55.512;37.764;2023-04-21T05:24:08;4.93;;;2.70;;
44197;SDS011;30157;55.512;37.764;2023-04-21T05:26:34;11.57;;;3.20;;
44197;SDS011;30157;55.512;37.764;2023-04-21T05:29:00;7.80;;;3.30;;
44197;SDS011;30157;55.512;37.764;2023-04-21T05:31:25;3.67;;;2.50;;
44197;SDS011;30157;55.512;37.764;2023-04-21T05:33:51;10.68;;;3.03;;
44197;SDS011;30157;55.512;37.764;2023-04-21T05:36:17;7.38;;;2.58;;
44197;SDS011;30157;55.512;37.764;2023-04-21T05:38:44;7.45;;;2.67;;
44197;SDS011;30157;55.512;37.764;2023-04-21T05:41:10;4.65;;;2.50;;
44197;SDS011;30157;55.512;37.764;2023-04-21T05:43:36;5.22;;;2.80;;
44197;SDS011;30157;55.512;37.764;2023-04-21T05:46:02;5.60;;;2.65;;
44197;SDS011;30157;55.512;37.764;2023-04-21T05:48:33;6.43;;;2.85;;
44197;SDS011;30157;55.512;37.764;2023-04-21T05:51:09;5.97;;;2.80;;
44197;SDS011;30157;55.512;37.764;2023-04-21T05:53:37;6.40;;;2.95;;
44197;SDS011;30157;55.512;37.764;2023-04-21T05:56:03;3.47;;;2.55;;
44197;SDS011;30157;55.512;37.764;2023-04-21T05:58:30;6.85;;;2.35;;
44197;SDS011;30157;55.512;37.764;2023-04-21T06:00:55;5.65;;;2.60;;
44197;SDS011;30157;55.512;37.764;2023-04-21T06:03:21;5.63;;;2.63;;
44197;SDS011;30157;55.512;37.764;2023-04-21T06:05:52;6.47;;;2.78;;
44197;SDS011;30157;55.512;37.764;2023-04-21T06:08:19;7.15;;;2.70;;
44197;SDS011;30157;55.512;37.764;2023-04-21T06:10:44;19.50;;;3.30;;
44197;SDS011;30157;55.512;37.764;2023-04-21T06:13:10;4.97;;;2.55;;
44197;SDS011;30157;55.512;37.764;2023-04-21T06:15:36;5.28;;;2.50;;
44197;SDS011;30157;55.512;37.764;2023-04-21T06:18:01;7.60;;;2.58;;
44197;SDS011;30157;55.512;37.764;2023-04-21T06:20:27;4.72;;;2.50;;
44197;SDS011;30157;55.512;37.764;2023-04-21T06:22:53;5.32;;;2.30;;
44197;SDS011;30157;55.512;37.764;2023-04-21T06:25:19;3.90;;;2.00;;
44197;SDS011;30157;55.512;37.764;2023-04-21T06:27:45;3.08;;;2.00;;
44197;SDS011;30157;55.512;37.764;2023-04-21T06:30:10;4.57;;;2.75;;
44197;SDS011;30157;55.512;37.764;2023-04-21T06:32:37;5.65;;;3.10;;
44197;SDS011;30157;55.512;37.764;2023-04-21T06:35:02;3.95;;;1.90;;
44197;SDS011;30157;55.512;37.764;2023-04-21T06:37:30;3.65;;;2.13;;
44197;SDS011;30157;55.512;37.764;2023-04-21T06:39:56;4.03;;;2.20;;
44197;SDS011;30157;55.512;37.764;2023-04-21T06:42:22;4.30;;;1.45;;
44197;SDS011;30157;55.512;37.764;2023-04-21T06:44:47;5.05;;;2.13;;
44197;SDS011;30157;55.512;37.764;2023-04-21T06:47:13;4.10;;;2.10;;
44197;SDS011;30157;55.512;37.764;2023-04-21T06:49:41;6.05;;;2.53;;
44197;SDS011;30157;55.512;37.764;2023-04-21T06:52:07;4.05;;;1.95;;
44197;SDS011;30157;55.512;37.764;2023-04-21T06:54:32;2.83;;;1.92;;
44197;SDS011;30157;55.512;37.764;2023-04-21T06:56:58;3.60;;;1.90;;
44197;SDS011;30157;55.512;37.764;2023-04-21T06:59:24;5.03;;;2.03;;
44197;SDS011;30157;55.512;37.764;2023-04-21T07:01:50;4.20;;;1.90;;
44197;SDS011;30157;55.512;37.764;2023-04-21T07:04:19;5.13;;;2.20;;
44197;SDS011;30157;55.512;37.764;2023-04-21T07:06:45;3.15;;;1.80;;
44197;SDS011;30157;55.512;37.764;2023-04-21T07:09:12;4.20;;;2.20;;
44197;SDS011;30157;55.512;37.764;2023-04-21T07:11:38;3.65;;;2.15;;
44197;SDS011;30157;55.512;37.764;2023-04-21T07:14:04;3.40;;;1.65;;
44197;SDS011;30157;55.512;37.764;2023-04-21T07:16:31;3.97;;;1.80;;
44197;SDS011;30157;55.512;37.764;2023-04-21T07:19:25;3.17;;;1.63;;
44197;SDS011;30157;55.512;37.764;2023-04-21T07:21:51;2.70;;;1.77;;
44197;SDS011;30157;55.512;37.764;2023-04-21T07:24:17;5.28;;;2.00;;
44197;SDS011;30157;55.512;37.764;2023-04-21T07:26:43;4.45;;;1.60;;
44197;SDS011;30157;55.512;37.764;2023-04-21T07:29:08;10.85;;;2.50;;
44197;SDS011;30157;55.512;37.764;2023-04-21T07:31:34;3.75;;;1.80;;
44197;SDS011;30157;55.512;37.764;2023-04-21T07:34:00;3.40;;;1.73;;
44197;SDS011;30157;55.512;37.764;2023-04-21T07:36:26;2.50;;;1.75;;
44197;SDS011;30157;55.512;37.764;2023-04-21T07:38:52;5.10;;;1.95;;
44197;SDS011;30157;55.512;37.764;2023-04-21T07:41:18;3.15;;;2.00;;
44197;SDS011;30157;55.512;37.764;2023-04-21T07:43:44;6.88;;;2.35;;
44197;SDS011;30157;55.512;37.764;2023-04-21T07:46:10;5.72;;;2.00;;
44197;SDS011;30157;55.512;37.764;2023-04-21T07:48:37;4.15;;;1.85;;
44197;SDS011;30157;55.512;37.764;2023-04-21T07:51:04;3.47;;;1.63;;
44197;SDS011;30157;55.512;37.764;2023-04-21T07:53:30;3.88;;;1.70;;
44197;SDS011;30157;55.512;37.764;2023-04-21T07:55:56;5.18;;;1.83;;
44197;SDS011;30157;55.512;37.764;2023-04-21T07:58:22;4.13;;;1.80;;
44197;SDS011;30157;55.512;37.764;2023-04-21T08:00:47;3.25;;;1.50;;
44197;SDS011;30157;55.512;37.764;2023-04-21T08:03:14;4.88;;;2.05;;
44197;SDS011;30157;55.512;37.764;2023-04-21T08:05:40;4.47;;;1.98;;
44197;SDS011;30157;55.512;37.764;2023-04-21T08:08:06;4.03;;;2.40;;
44197;SDS011;30157;55.512;37.764;2023-04-21T08:10:32;6.40;;;2.33;;
44197;SDS011;30157;55.512;37.764;2023-04-21T08:12:58;2.85;;;1.90;;
44197;SDS011;30157;55.512;37.764;2023-04-21T08:15:24;3.70;;;2.03;;
44197;SDS011;30157;55.512;37.764;2023-04-21T08:17:50;4.65;;;1.70;;
44197;SDS011;30157;55.512;37.764;2023-04-21T08:20:16;3.72;;;1.83;;
44197;SDS011;30157;55.512;37.764;2023-04-21T08:22:42;2.88;;;2.00;;
44197;SDS011;30157;55.512;37.764;2023-04-21T08:25:07;6.63;;;2.10;;
44197;SDS011;30157;55.512;37.764;2023-04-21T08:27:36;3.67;;;1.90;;
44197;SDS011;30157;55.512;37.764;2023-04-21T08:30:02;2.88;;;1.92;;
44197;SDS011;30157;55.512;37.764;2023-04-21T08:32:31;6.15;;;2.40;;
44197;SDS011;30157;55.512;37.764;2023-04-21T08:34:57;7.28;;;2.10;;
44197;SDS011;30157;55.512;37.764;2023-04-21T08:37:23;2.70;;;1.50;;
44197;SDS011;30157;55.512;37.764;2023-04-21T08:39:48;2.00;;;1.60;;
44197;SDS011;30157;55.512;37.764;2023-04-21T08:42:18;2.03;;;1.30;;
44197;SDS011;30157;55.512;37.764;2023-04-21T08:44:45;3.42;;;1.95;;
44197;SDS011;30157;55.512;37.764;2023-04-21T08:47:12;3.10;;;1.70;;
44197;SDS011;30157;55.512;37.764;2023-04-21T08:49:39;11.57;;;2.60;;
44197;SDS011;30157;55.512;37.764;2023-04-21T08:52:07;3.78;;;1.60;;
44197;SDS011;30157;55.512;37.764;2023-04-21T08:54:33;5.10;;;1.75;;
44197;SDS011;30157;55.512;37.764;2023-04-21T08:57:03;2.95;;;1.77;;
44197;SDS011;30157;55.512;37.764;2023-04-21T08:59:29;5.00;;;1.73;;
44197;SDS011;30157;55.512;37.764;2023-04-21T09:04:49;4.40;;;1.70;;
44197;SDS011;30157;55.512;37.764;2023-04-21T09:07:32;4.45;;;1.50;;
44197;SDS011;30157;55.512;37.764;2023-04-21T09:09:59;3.60;;;1.55;;
44197;SDS011;30157;55.512;37.764;2023-04-21T09:12:25;4.80;;;2.20;;
44197;SDS011;30157;55.512;37.764;2023-04-21T09:14:52;3.25;;;1.50;;
44197;SDS011;30157;55.512;37.764;2023-04-21T09:17:20;3.35;;;1.92;;
44197;SDS011;30157;55.512;37.764;2023-04-21T09:19:51;2.83;;;1.73;;
44197;SDS011;30157;55.512;37.764;2023-04-21T09:22:17;4.85;;;1.50;;
44197;SDS011;30157;55.512;37.764;2023-04-21T09:24:44;4.38;;;2.08;;
44197;SDS011;30157;55.512;37.764;2023-04-21T09:27:11;3.35;;;1.70;;
44197;SDS011;30157;55.512;37.764;2023-04-21T09:29:37;4.72;;;1.80;;
44197;SDS011;30157;55.512;37.764;2023-04-21T09:32:03;3.50;;;1.73;;
44197;SDS011;30157;55.512;37.764;2023-04-21T09:34:28;3.28;;;1.60;;
44197;SDS011;30157;55.512;37.764;2023-04-21T09:36:58;2.58;;;1.60;;
44197;SDS011;30157;55.512;37.764;2023-04-21T09:39:25;4.93;;;2.15;;
44197;SDS011;30157;55.512;37.764;2023-04-21T09:41:53;3.45;;;1.65;;
44197;SDS011;30157;55.512;37.764;2023-04-21T09:44:18;3.42;;;1.73;;
44197;SDS011;30157;55.512;37.764;2023-04-21T09:46:46;3.42;;;1.70;;
44197;SDS011;30157;55.512;37.764;2023-04-21T09:49:15;5.10;;;1.73;;
44197;SDS011;30157;55.512;37.764;2023-04-21T09:51:41;5.25;;;1.90;;
44197;SDS011;30157;55.512;37.764;2023-04-21T09:57:02;3.38;;;1.42;;
44197;SDS011;30157;55.512;37.764;2023-04-21T09:59:29;5.82;;;1.85;;
44197;SDS011;30157;55.512;37.764;2023-04-21T10:01:59;2.55;;;1.40;;
44197;SDS011;30157;55.512;37.764;2023-04-21T10:04:29;5.90;;;1.70;;
44197;SDS011;30157;55.512;37.764;2023-04-21T10:06:57;3.13;;;1.80;;
44197;SDS011;30157;55.512;37.764;2023-04-21T10:09:24;1.77;;;1.30;;
44197;SDS011;30157;55.512;37.764;2023-04-21T10:11:55;2.55;;;1.30;;
44197;SDS011;30157;55.512;37.764;2023-04-21T10:14:24;3.28;;;1.42;;
44197;SDS011;30157;55.512;37.764;2023-04-21T10:16:58;3.20;;;1.60;;
44197;SDS011;30157;55.512;37.764;2023-04-21T10:19:28;2.95;;;1.35;;
44197;SDS011;30157;55.512;37.764;2023-04-21T10:21:59;2.90;;;1.60;;
44197;SDS011;30157;55.512;37.764;2023-04-21T10:24:28;3.00;;;1.60;;
44197;SDS011;30157;55.512;37.764;2023-04-21T10:26:57;3.42;;;1.55;;
44197;SDS011;30157;55.512;37.764;2023-04-21T10:29:33;5.05;;;1.40;;
44197;SDS011;30157;55.512;37.764;2023-04-21T10:31:58;1.85;;;1.30;;
44197;SDS011;30157;55.512;37.764;2023-04-21T10:39:28;4.03;;;1.95;;
44197;SDS011;30157;55.512;37.764;2023-04-21T10:42:17;7.07;;;1.90;;
44197;SDS011;30157;55.512;37.764;2023-04-21T10:45:05;3.70;;;1.80;;
44197;SDS011;30157;55.512;37.764;2023-04-21T10:47:37;7.25;;;1.90;;
44197;SDS011;30157;55.512;37.764;2023-04-21T10:50:10;3.92;;;1.60;;
44197;SDS011;30157;55.512;37.764;2023-04-21T10:52:50;2.60;;;1.38;;
44197;SDS011;30157;55.512;37.764;2023-04-21T10:55:18;2.60;;;1.40;;
44197;SDS011;30157;55.512;37.764;2023-04-21T10:57:45;2.60;;;1.60;;
44197;SDS011;30157;55.512;37.764;2023-04-21T11:00:15;5.25;;;1.67;;
44197;SDS011;30157;55.512;37.764;2023-04-21T11:02:53;10.10;;;2.07;;
44197;SDS011;30157;55.512;37.764;2023-04-21T11:08:06;5.63;;;1.63;;
44197;SDS011;30157;55.512;37.764;2023-04-21T11:13:19;2.38;;;1.42;;
44197;SDS011;30157;55.512;37.764;2023-04-21T11:15:57;5.03;;;1.60;;
44197;SDS011;30157;55.512;37.764;2023-04-21T11:18:37;2.90;;;1.27;;
44197;SDS011;30157;55.512;37.764;2023-04-21T11:23:39;1.67;;;1.20;;
44197;SDS011;30157;55.512;37.764;2023-04-21T11:26:06;2.85;;;1.25;;
44197;SDS011;30157;55.512;37.764;2023-04-21T11:28:32;2.65;;;1.48;;
44197;SDS011;30157;55.512;37.764;2023-04-21T11:30:58;2.30;;;1.10;;
44197;SDS011;30157;55.512;37.764;2023-04-21T11:33:23;3.50;;;1.45;;
44197;SDS011;30157;55.512;37.764;2023-04-21T11:35:52;3.17;;;1.30;;
44197;SDS011;30157;55.512;37.764;2023-04-21T11:38:23;2.50;;;1.20;;
44197;SDS011;30157;55.512;37.764;2023-04-21T11:40:49;2.70;;;1.67;;
44197;SDS011;30157;55.512;37.764;2023-04-21T11:43:16;1.92;;;1.45;;
44197;SDS011;30157;55.512;37.764;2023-04-21T11:45:42;1.98;;;1.50;;
44197;SDS011;30157;55.512;37.764;2023-04-21T11:48:13;1.95;;;1.40;;
44197;SDS011;30157;55.512;37.764;2023-04-21T11:50:45;3.45;;;1.80;;
44197;SDS011;30157;55.512;37.764;2023-04-21T11:53:13;3.40;;;1.30;;
44197;SDS011;30157;55.512;37.764;2023-04-21T11:55:43;2.95;;;1.60;;
44197;SDS011;30157;55.512;37.764;2023-04-21T11:58:13;2.55;;;1.30;;
44197;SDS011;30157;55.512;37.764;2023-04-21T12:00:43;3.25;;;1.23;;
44197;SDS011;30157;55.512;37.764;2023-04-21T12:03:11;4.22;;;1.30;;
44197;SDS011;30157;55.512;37.764;2023-04-21T12:05:38;2.60;;;1.15;;
44197;SDS011;30157;55.512;37.764;2023-04-21T12:08:04;3.03;;;1.48;;
44197;SDS011;30157;55.512;37.764;2023-04-21T12:10:30;3.08;;;1.55;;
44197;SDS011;30157;55.512;37.764;2023-04-21T12:12:56;2.30;;;1.33;;
44197;SDS011;30157;55.512;37.764;2023-04-21T12:15:22;4.43;;;1.80;;
44197;SDS011;30157;55.512;37.764;2023-04-21T12:17:51;5.60;;;1.88;;
44197;SDS011;30157;55.512;37.764;2023-04-21T12:20:19;4.40;;;1.50;;
44197;SDS011;30157;55.512;37.764;2023-04-21T12:22:46;3.72;;;1.70;;
44197;SDS011;30157;55.512;37.764;2023-04-21T12:25:12;6.47;;;2.10;;
44197;SDS011;30157;55.512;37.764;2023-04-21T12:27:51;2.67;;;1.50;;
44197;SDS011;30157;55.512;37.764;2023-04-21T12:30:22;2.60;;;1.48;;
44197;SDS011;30157;55.512;37.764;2023-04-21T12:32:48;3.50;;;1.60;;
44197;SDS011;30157;55.512;37.764;2023-04-21T12:35:13;5.75;;;1.95;;
44197;SDS011;30157;55.512;37.764;2023-04-21T12:37:39;5.88;;;2.67;;
44197;SDS011;30157;55.512;37.764;2023-04-21T12:40:05;3.70;;;1.90;;
44197;SDS011;30157;55.512;37.764;2023-04-21T12:42:32;4.78;;;1.60;;
44197;SDS011;30157;55.512;37.764;2023-04-21T12:44:58;2.58;;;1.55;;
44197;SDS011;30157;55.512;37.764;2023-04-21T12:47:24;2.38;;;1.70;;
44197;SDS011;30157;55.512;37.764;2023-04-21T12:49:50;5.03;;;2.35;;
44197;SDS011;30157;55.512;37.764;2023-04-21T12:52:15;4.63;;;2.30;;
44197;SDS011;30157;55.512;37.764;2023-04-21T12:54:41;3.85;;;2.00;;
44197;SDS011;30157;55.512;37.764;2023-04-21T12:57:09;6.28;;;2.08;;
44197;SDS011;30157;55.512;37.764;2023-04-21T12:59:37;5.55;;;1.85;;
44197;SDS011;30157;55.512;37.764;2023-04-21T13:02:02;3.92;;;1.50;;
44197;SDS011;30157;55.512;37.764;2023-04-21T13:04:28;3.03;;;1.95;;
44197;SDS011;30157;55.512;37.764;2023-04-21T13:06:57;2.15;;;1.60;;
44197;SDS011;30157;55.512;37.764;2023-04-21T13:09:22;3.25;;;1.75;;
44197;SDS011;30157;55.512;37.764;2023-04-21T13:11:48;3.30;;;2.03;;
44197;SDS011;30157;55.512;37.764;2023-04-21T13:14:16;3.33;;;1.80;;
44197;SDS011;30157;55.512;37.764;2023-04-21T13:16:42;4.22;;;1.80;;
44197;SDS011;30157;55.512;37.764;2023-04-21T13:19:08;3.58;;;1.60;;
44197;SDS011;30157;55.512;37.764;2023-04-21T13:21:36;3.22;;;1.70;;
44197;SDS011;30157;55.512;37.764;2023-04-21T13:24:02;4.13;;;1.80;;
44197;SDS011;30157;55.512;37.764;2023-04-21T13:26:30;3.92;;;1.83;;
44197;SDS011;30157;55.512;37.764;2023-04-21T13:28:58;4.45;;;1.90;;
44197;SDS011;30157;55.512;37.764;2023-04-21T13:31:23;4.72;;;2.45;;
44197;SDS011;30157;55.512;37.764;2023-04-21T13:33:50;5.63;;;2.00;;
44197;SDS011;30157;55.512;37.764;2023-04-21T13:36:15;3.25;;;2.08;;
44197;SDS011;30157;55.512;37.764;2023-04-21T13:38:41;5.55;;;2.88;;
44197;SDS011;30157;55.512;37.764;2023-04-21T13:41:07;11.90;;;5.75;;
44197;SDS011;30157;55.512;37.764;2023-04-21T13:43:33;18.20;;;7.85;;
44197;SDS011;30157;55.512;37.764;2023-04-21T13:45:59;8.32;;;5.78;;
44197;SDS011;30157;55.512;37.764;2023-04-21T13:48:25;12.68;;;6.75;;
44197;SDS011;30157;55.512;37.764;2023-04-21T13:50:51;7.55;;;3.60;;
44197;SDS011;30157;55.512;37.764;2023-04-21T13:53:16;9.43;;;5.28;;
44197;SDS011;30157;55.512;37.764;2023-04-21T13:55:42;5.80;;;2.67;;
44197;SDS011;30157;55.512;37.764;2023-04-21T13:58:09;5.07;;;3.20;;
44197;SDS011;30157;55.512;37.764;2023-04-21T14:00:35;8.13;;;2.53;;
44197;SDS011;30157;55.512;37.764;2023-04-21T14:03:02;6.93;;;2.00;;
44197;SDS011;30157;55.512;37.764;2023-04-21T14:05:28;2.45;;;2.05;;
44197;SDS011;30157;55.512;37.764;2023-04-21T14:07:54;5.60;;;2.88;;
44197;SDS011;30157;55.512;37.764;2023-04-21T14:10:20;5.78;;;3.60;;
44197;SDS011;30157;55.512;37.764;2023-04-21T14:12:46;8.95;;;6.30;;
44197;SDS011;30157;55.512;37.764;2023-04-21T14:15:13;7.38;;;3.97;;
44197;SDS011;30157;55.512;37.764;2023-04-21T14:17:39;3.30;;;2.17;;
44197;SDS011;30157;55.512;37.764;2023-04-21T14:20:06;3.85;;;2.00;;
44197;SDS011;30157;55.512;37.764;2023-04-21T14:22:34;5.32;;;2.17;;
44197;SDS011;30157;55.512;37.764;2023-04-21T14:25:00;11.93;;;7.13;;
44197;SDS011;30157;55.512;37.764;2023-04-21T14:27:26;12.02;;;6.97;;
44197;SDS011;30157;55.512;37.764;2023-04-21T14:29:52;11.15;;;6.47;;
44197;SDS011;30157;55.512;37.764;2023-04-21T14:32:17;6.07;;;3.22;;
44197;SDS011;30157;55.512;37.764;2023-04-21T14:34:45;4.50;;;3.00;;
44197;SDS011;30157;55.512;37.764;2023-04-21T14:37:11;3.00;;;1.60;;
44197;SDS011;30157;55.512;37.764;2023-04-21T14:39:37;2.40;;;1.60;;
44197;SDS011;30157;55.512;37.764;2023-04-21T14:42:02;4.97;;;2.00;;
44197;SDS011;30157;55.512;37.764;2023-04-21T14:44:28;4.47;;;1.70;;
44197;SDS011;30157;55.512;37.764;2023-04-21T14:46:54;2.42;;;1.50;;
44197;SDS011;30157;55.512;37.764;2023-04-21T14:49:21;2.92;;;1.60;;
44197;SDS011;30157;55.512;37.764;2023-04-21T14:51:47;2.80;;;1.65;;
44197;SDS011;30157;55.512;37.764;2023-04-21T14:54:14;2.85;;;1.42;;